Time;durP1;ratioP1;P1;durP2;ratioP2;P2;SDS_P1;SDS_P2;PMS_P1;PMS_P2;Temp;Humidity;BMP_temperature;BMP_pressure;BME280_temperature;BME280_humidity;BME280_pressure;Samples;Min_cycle;Max_cycle;Signal;HPM_P1;HPM_P2
2022/08/04 00:01:30;;;;;;;3.63;3.33;;;;;;;17.90;79.16;97079.09;5064568;28;20086;-67
2022/08/04 00:04:02;;;;;;;3.50;3.20;;;;;;;17.83;79.26;97077.16;5064691;28;20052;-66
2022/08/04 00:06:54;;;;;;;4.13;3.23;;;;;;;17.95;78.69;97075.84;5065371;28;20056;-63
2022/08/04 00:09:41;;;;;;;3.75;3.40;;;;;;;17.89;79.02;97077.50;5068129;28;20489;-62
2022/08/04 00:12:10;;;;;;;5.50;3.25;;;;;;;17.80;79.86;97085.59;5069013;28;20475;-63
2022/08/04 00:14:45;;;;;;;3.35;2.97;;;;;;;17.68;80.09;97064.53;5066742;28;20403;-67
2022/08/04 00:17:13;;;;;;;3.50;3.20;;;;;;;17.74;80.84;97079.66;5068466;28;20052;-66
2022/08/04 00:19:45;;;;;;;6.03;3.60;;;;;;;17.70;81.35;97075.31;5066557;28;20064;-66
2022/08/04 00:22:13;;;;;;;3.95;3.40;;;;;;;17.74;81.14;97078.84;5068312;28;20048;-66
2022/08/04 00:24:40;;;;;;;5.65;3.42;;;;;;;17.78;80.78;97079.63;5066631;28;20090;-63
2022/08/04 00:27:07;;;;;;;3.88;3.13;;;;;;;17.79;80.19;97078.41;5068133;28;20052;-62
2022/08/04 00:29:37;;;;;;;5.10;3.83;;;;;;;17.44;80.94;97039.50;5068096;28;20107;-61
2022/08/04 00:32:06;;;;;;;5.45;3.60;;;;;;;17.79;80.52;97084.00;5068064;28;20048;-66
2022/08/04 00:34:33;;;;;;;7.00;3.92;;;;;;;17.60;83.78;97070.59;5067391;28;20565;-62
2022/08/04 00:37:00;;;;;;;5.10;3.88;;;;;;;17.20;84.89;97024.53;5067574;28;20056;-67
2022/08/04 00:39:28;;;;;;;8.38;4.40;;;;;;;17.64;85.54;97082.59;5066377;28;20439;-65
2022/08/04 00:42:09;;;;;;;3.67;3.28;;;;;;;17.69;84.80;97088.50;5067726;28;20049;-66
2022/08/04 00:44:36;;;;;;;6.28;3.90;;;;;;;17.70;84.06;97092.13;5067263;28;20049;-62
2022/08/04 00:47:25;;;;;;;5.28;3.53;;;;;;;17.70;84.60;97114.53;5067981;28;20106;-64
2022/08/04 00:50:00;;;;;;;4.72;4.03;;;;;;;17.56;85.63;97097.88;5066355;28;20056;-66
2022/08/04 00:52:45;;;;;;;6.03;4.03;;;;;;;17.59;85.95;97099.84;5067833;28;20061;-61
2022/08/04 00:55:31;;;;;;;7.18;4.30;;;;;;;17.65;85.20;97100.97;5066553;28;20477;-66
2022/08/04 00:58:06;;;;;;;5.97;4.65;;;;;;;17.68;85.09;97094.53;5067057;28;20605;-62
2022/08/04 01:00:55;;;;;;;4.65;4.25;;;;;;;17.80;84.28;97091.19;5065631;28;20052;-66
2022/08/04 01:03:48;;;;;;;4.93;3.65;;;;;;;14.48;83.36;96563.28;5067286;28;20060;-66
2022/08/04 01:06:21;;;;;;;4.28;3.88;;;;;;;17.81;83.12;97087.97;5067398;28;20067;-61
2022/08/04 01:09:06;;;;;;;4.03;3.63;;;;;;;17.83;82.85;97090.38;5067100;28;20057;-63
2022/08/04 01:11:49;;;;;;;6.22;4.03;;;;;;;17.33;82.57;97013.63;5067050;28;20052;-65
2022/08/04 01:14:49;;;;;;;4.57;3.47;;;;;;;17.84;82.83;97097.56;5067062;28;20155;-65
2022/08/04 01:17:24;;;;;;;4.47;3.80;;;;;;;17.86;82.48;97095.16;5066565;28;20422;-66
2022/08/04 01:20:06;;;;;;;4.45;3.90;;;;;;;17.91;81.94;97091.88;5065119;28;20056;-66
2022/08/04 01:22:33;;;;;;;4.93;3.38;;;;;;;17.82;82.45;97089.59;5066833;28;20052;-62
2022/08/04 01:25:24;;;;;;;5.45;3.75;;;;;;;17.84;82.78;97086.38;5065172;28;20056;-66
2022/08/04 01:28:15;;;;;;;6.72;3.33;;;;;;;17.77;82.77;97086.44;5066744;28;20052;-65
2022/08/04 01:30:47;;;;;;;4.20;3.53;;;;;;;17.69;83.04;97087.72;5066199;28;20059;-65
2022/08/04 01:33:16;;;;;;;4.45;3.10;;;;;;;17.61;84.00;97091.78;5066698;28;20056;-62
2022/08/04 01:35:47;;;;;;;4.85;3.60;;;;;;;17.61;84.17;97086.19;5066600;28;20924;-66
2022/08/04 01:38:27;;;;;;;4.43;3.35;;;;;;;17.44;83.70;97050.72;5066632;28;20511;-64
2022/08/04 01:40:58;;;;;;;6.07;3.50;;;;;;;17.66;83.93;97085.75;5064869;28;20052;-65
2022/08/04 01:43:28;;;;;;;3.78;3.33;;;;;;;17.58;84.38;97081.41;5066496;28;20061;-62
2022/08/04 01:46:03;;;;;;;4.38;3.70;;;;;;;17.30;84.59;97034.06;5066578;28;20052;-61
2022/08/04 01:48:34;;;;;;;4.53;4.03;;;;;;;17.48;85.15;97082.34;5066806;28;20080;-62
2022/08/04 01:51:07;;;;;;;5.18;3.22;;;;;;;17.41;85.33;97079.56;5066504;28;20071;-66
2022/08/04 01:53:39;;;;;;;3.58;3.28;;;;;;;17.36;85.94;97074.41;5066335;28;20174;-61
2022/08/04 01:56:09;;;;;;;4.30;3.63;;;;;;;17.39;85.74;97081.97;5064661;28;20048;-61
2022/08/04 01:58:38;;;;;;;3.95;3.42;;;;;;;17.26;86.48;97072.50;5064686;28;20055;-66
2022/08/04 02:01:10;;;;;;;4.00;3.70;;;;;;;17.07;87.09;97045.06;5066107;28;20056;-66
2022/08/04 02:03:44;;;;;;;4.90;3.47;;;;;;;17.27;87.36;97071.28;5064721;28;20055;-66
2022/08/04 02:06:58;;;;;;;4.63;3.75;;;;;;;17.30;87.52;97071.25;5066239;28;20052;-62
2022/08/04 02:09:46;;;;;;;5.85;3.45;;;;;;;17.35;86.83;97076.41;5064528;28;20044;-65
2022/08/04 02:12:23;;;;;;;3.70;3.40;;;;;;;17.43;86.18;97075.16;5064350;28;20064;-66
2022/08/04 02:15:20;;;;;;;4.80;3.25;;;;;;;17.41;86.58;97069.16;5066282;28;20094;-66
2022/08/04 02:17:56;;;;;;;4.35;3.65;;;;;;;17.35;86.48;97072.81;5065982;28;20056;-66
2022/08/04 02:20:45;;;;;;;4.00;3.15;;;;;;;17.48;86.37;97071.91;5065736;28;20063;-60
2022/08/04 02:23:29;;;;;;;4.35;3.78;;;;;;;17.53;85.70;97073.50;5064190;28;20067;-62
2022/08/04 02:25:59;;;;;;;6.30;3.83;;;;;;;17.49;85.34;97064.31;5065557;28;20130;-65
2022/08/04 02:28:35;;;;;;;5.28;4.38;;;;;;;17.22;86.54;97064.13;5063441;28;20052;-66
2022/08/04 02:31:03;;;;;;;4.82;4.32;;;;;;;17.23;86.71;97067.72;5063990;28;20056;-60
2022/08/04 02:33:36;;;;;;;4.32;3.80;;;;;;;17.31;86.02;97069.25;5065382;28;20387;-65
2022/08/04 02:36:05;;;;;;;5.47;3.75;;;;;;;17.30;85.65;97073.25;5064190;28;20497;-61
2022/08/04 02:38:53;;;;;;;4.53;3.55;;;;;;;17.27;85.93;97068.47;5064979;28;20055;-61
2022/08/04 02:41:23;;;;;;;6.82;3.83;;;;;;;17.20;86.39;97068.56;5065135;28;20052;-65
2022/08/04 02:43:54;;;;;;;4.07;3.67;;;;;;;17.15;86.22;97049.41;5065298;28;20041;-66
2022/08/04 02:46:21;;;;;;;6.03;4.07;;;;;;;17.15;86.96;97060.59;5063605;28;20048;-66
2022/08/04 02:48:51;;;;;;;5.80;3.60;;;;;;;17.17;86.91;97055.38;5063583;28;20049;-65
2022/08/04 02:51:30;;;;;;;3.95;3.55;;;;;;;16.93;86.89;97048.00;5063343;28;20435;-61
2022/08/04 02:53:59;;;;;;;5.18;3.47;;;;;;;17.13;87.35;97058.22;5065129;28;20044;-61
2022/08/04 02:56:30;;;;;;;6.82;3.70;;;;;;;17.13;87.26;97063.00;5062936;28;20515;-60
2022/08/04 02:59:05;;;;;;;6.35;4.50;;;;;;;17.11;88.14;97071.00;5065050;28;20060;-65
2022/08/04 03:01:33;;;;;;;5.70;3.80;;;;;;;17.10;87.82;97067.44;5063418;28;20045;-61
2022/08/04 03:04:19;;;;;;;4.72;4.18;;;;;;;17.05;88.07;97069.88;5065076;28;20570;-61
2022/08/04 03:07:28;;;;;;;5.75;4.57;;;;;;;17.01;88.74;97074.72;5063521;28;20056;-65
2022/08/04 03:10:16;;;;;;;7.72;4.53;;;;;;;17.06;88.68;97075.06;5063439;28;20106;-61
2022/08/04 03:12:51;;;;;;;5.72;4.25;;;;;;;17.11;88.74;97082.22;5065066;28;20131;-66
2022/08/04 03:15:39;;;;;;;5.28;3.83;;;;;;;17.16;88.02;97076.19;5064833;28;20523;-66
2022/08/04 03:18:24;;;;;;;5.03;4.22;;;;;;;17.23;87.15;97084.53;5064844;28;20139;-65
2022/08/04 03:21:18;;;;;;;3.92;3.53;;;;;;;17.29;86.01;97082.88;5064777;28;20139;-61
2022/08/04 03:24:14;;;;;;;5.72;3.58;;;;;;;17.31;86.16;97080.47;5064898;28;20060;-60
2022/08/04 03:26:51;;;;;;;4.22;3.25;;;;;;;17.34;85.65;97085.22;5063434;28;20534;-60
2022/08/04 03:29:42;;;;;;;5.23;4.70;;;;;;;17.06;87.47;97091.03;5065292;28;20054;-61
2022/08/04 03:32:27;;;;;;;7.03;5.20;;;;;;;17.02;87.90;97085.50;5065219;28;20310;-59
2022/08/04 03:35:15;;;;;;;5.22;4.40;;;;;;;17.17;86.17;97086.16;5064857;28;20131;-60
2022/08/04 03:38:10;;;;;;;6.45;5.72;;;;;;;17.26;86.41;97083.69;5064978;28;20080;-65
2022/08/04 03:41:14;;;;;;;10.27;5.60;;;;;;;17.28;86.14;97084.06;5068238;28;20064;-64
2022/08/04 03:43:51;;;;;;;4.60;4.05;;;;;;;17.41;84.83;97079.56;5071467;28;20094;-62
2022/08/04 03:46:53;;;;;;;3.72;3.30;;;;;;;17.46;84.40;97076.34;5071436;28;20573;-65
2022/08/04 03:49:59;;;;;;;6.65;4.18;;;;;;;17.59;83.47;97094.22;5071619;28;20526;-61
2022/08/04 03:53:09;;;;;;;5.03;3.38;;;;;;;17.62;83.04;97085.00;5070913;28;20550;-66
2022/08/04 03:56:11;;;;;;;7.32;2.90;;;;;;;17.75;81.88;97100.09;5069466;28;20057;-65
2022/08/04 03:58:55;;;;;;;6.95;3.70;;;;;;;17.81;81.46;97081.59;5071272;28;20052;-65
2022/08/04 04:01:22;;;;;;;6.97;3.53;;;;;;;17.78;81.33;97082.44;5071449;28;20067;-60
2022/08/04 04:04:07;;;;;;;5.68;3.42;;;;;;;17.83;81.57;97081.97;5070914;28;20052;-60
2022/08/04 04:07:11;;;;;;;5.78;3.55;;;;;;;17.87;81.57;97082.72;5070831;28;20561;-65
2022/08/04 04:09:54;;;;;;;7.25;3.28;;;;;;;18.22;79.95;97081.53;5070776;28;20052;-65
2022/08/04 04:13:10;;;;;;;4.45;2.83;;;;;;;18.36;79.24;97090.56;5069721;28;20056;-65
2022/08/04 04:15:55;;;;;;;3.30;3.00;;;;;;;18.53;77.44;97086.75;5069504;28;20056;-64
2022/08/04 04:18:28;;;;;;;9.40;3.90;;;;;;;18.61;76.78;97088.25;5071133;28;20117;-60
2022/08/04 04:20:58;;;;;;;;;;;;;;;18.70;76.15;97088.50;5071522;28;20056;-63
2022/08/04 04:23:47;;;;;;;5.82;3.80;;;;;;;18.85;76.39;97089.09;5070938;28;19982;-61
2022/08/04 04:26:26;;;;;;;6.88;3.92;;;;;;;19.10;76.21;97093.13;5070617;28;20056;-62
2022/08/04 04:29:30;;;;;;;4.72;3.60;;;;;;;19.34;74.65;97094.78;5070849;28;20044;-61
2022/08/04 04:32:15;;;;;;;4.15;3.60;;;;;;;19.53;74.20;97096.06;5070582;28;20056;-63
2022/08/04 04:35:01;;;;;;;5.05;3.50;;;;;;;19.74;72.59;97089.28;5069709;28;20209;-65
2022/08/04 04:37:48;;;;;;;4.22;3.08;;;;;;;19.76;72.74;97081.22;5070767;28;20048;-65
2022/08/04 04:40:30;;;;;;;8.50;3.70;;;;;;;19.73;72.14;97037.09;5070616;28;20094;-64
2022/08/04 04:43:10;;;;;;;4.97;4.25;;;;;;;20.17;71.61;97076.03;5060794;28;20061;-65
2022/08/04 04:46:07;;;;;;;5.63;3.67;;;;;;;20.32;71.33;97074.50;5068979;28;20052;-65
2022/08/04 04:48:40;;;;;;;5.63;4.50;;;;;;;20.50;70.71;97074.94;5070627;28;20052;-65
2022/08/04 04:51:18;;;;;;;5.03;3.95;;;;;;;20.68;69.25;97069.69;5068268;28;20318;-61
2022/08/04 04:54:12;;;;;;;6.85;4.00;;;;;;;20.78;68.54;97068.69;5067085;28;20059;-65
2022/08/04 04:57:08;;;;;;;7.35;3.63;;;;;;;21.05;67.06;97065.66;5059188;28;20064;-61
2022/08/04 04:59:41;;;;;;;4.25;3.70;;;;;;;19.30;66.33;96806.75;5067372;28;20044;-61
2022/08/04 05:02:46;;;;;;;7.07;3.10;;;;;;;21.18;65.48;97064.56;5065663;28;20060;-61
2022/08/04 05:05:12;;;;;;;;;;;;;;;21.27;66.14;97061.91;5067518;28;20056;-60
2022/08/04 05:07:52;;;;;;;3.53;3.22;;;;;;;21.25;65.74;97064.38;5067025;28;19951;-64
2022/08/04 05:10:49;;;;;;;5.15;3.50;;;;;;;21.50;64.74;97064.53;5066982;28;20052;-65
2022/08/04 05:13:34;;;;;;;3.42;3.03;;;;;;;21.63;63.54;97065.41;5065340;28;20052;-65
2022/08/04 05:16:24;;;;;;;4.03;3.50;;;;;;;21.76;63.30;97059.88;5066765;28;20052;-66
2022/08/04 05:19:02;;;;;;;3.35;3.05;;;;;;;21.96;62.79;97069.78;5066805;28;20056;-61
2022/08/04 05:21:35;;;;;;;3.17;2.72;;;;;;;22.23;62.07;97067.41;5065332;28;20083;-65
2022/08/04 05:24:07;;;;;;;4.38;2.95;;;;;;;22.29;61.21;97054.34;5066661;28;20143;-66
2022/08/04 05:26:40;;;;;;;3.92;3.40;;;;;;;21.72;62.32;96999.94;5057140;28;20052;-59
2022/08/04 05:29:12;;;;;;;4.90;3.17;;;;;;;22.37;60.80;97043.63;5064960;28;20072;-62
2022/08/04 05:31:48;;;;;;;3.35;2.97;;;;;;;22.31;59.75;96989.75;5066226;28;20462;-60
2022/08/04 05:34:20;;;;;;;5.80;3.38;;;;;;;23.15;58.47;97071.09;5066455;28;20067;-67
2022/08/04 05:36:51;;;;;;;3.85;2.80;;;;;;;23.35;57.79;97073.72;5066604;28;20064;-59
2022/08/04 05:39:28;;;;;;;5.22;3.50;;;;;;;23.53;57.13;97085.25;5065210;28;20451;-68
2022/08/04 05:42:01;;;;;;;6.15;3.60;;;;;;;23.73;56.69;97069.59;5064678;28;20499;-60
2022/08/04 05:44:32;;;;;;;6.43;3.40;;;;;;;23.80;56.24;97054.41;5058984;28;20541;-60
2022/08/04 05:47:03;;;;;;;6.15;4.10;;;;;;;24.03;56.79;97079.47;5056017;28;20049;-61
2022/08/04 05:49:31;;;;;;;10.38;3.70;;;;;;;24.19;56.92;97076.47;5048310;28;20057;-59
2022/08/04 05:52:02;;;;;;;8.25;3.63;;;;;;;24.12;56.92;97073.91;5049234;28;20594;-58
2022/08/04 05:54:31;;;;;;;5.18;3.90;;;;;;;24.16;56.32;97037.75;5064494;28;20423;-69
2022/08/04 05:56:58;;;;;;;4.47;3.63;;;;;;;24.34;55.64;97015.25;5063430;28;20459;-61
2022/08/04 05:59:28;;;;;;;6.07;3.95;;;;;;;25.01;54.84;97067.31;5051914;28;20062;-68
2022/08/04 06:01:57;;;;;;;5.75;4.28;;;;;;;25.23;54.07;97064.41;5050043;28;20443;-61
2022/08/04 06:04:32;;;;;;;4.75;3.45;;;;;;;25.22;51.64;97046.63;5042653;28;20059;-61
2022/08/04 06:06:59;;;;;;;6.00;4.10;;;;;;;25.59;51.53;97080.81;5057280;28;20070;-67
2022/08/04 06:09:26;;;;;;;5.20;3.53;;;;;;;25.56;53.47;97064.72;5047103;28;20049;-68
2022/08/04 06:11:55;;;;;;;6.15;5.00;;;;;;;25.14;54.61;97010.50;5046129;28;20053;-68
2022/08/04 06:14:34;;;;;;;4.57;4.15;;;;;;;25.44;53.68;97062.78;5048682;28;20053;-72
2022/08/04 06:17:04;;;;;;;5.00;3.70;;;;;;;23.85;55.96;96938.59;5061523;28;20049;-64
2022/08/04 06:19:53;;;;;;;3.88;3.55;;;;;;;25.13;54.41;97021.03;5045403;28;20201;-70
2022/08/04 06:22:29;;;;;;;3.50;3.20;;;;;;;25.65;52.95;97053.38;5053267;28;20063;-61
2022/08/04 06:24:57;;;;;;;3.38;3.08;;;;;;;25.66;52.27;97040.75;5063705;28;20049;-62
2022/08/04 06:27:27;;;;;;;4.40;3.60;;;;;;;25.96;49.86;97052.00;5064671;28;20044;-68
2022/08/04 06:29:57;;;;;;;3.85;3.47;;;;;;;25.95;50.10;97052.47;5044979;28;20048;-68
2022/08/04 06:32:46;;;;;;;3.80;3.40;;;;;;;25.80;49.98;97009.72;5055823;28;20068;-60
2022/08/04 06:35:18;;;;;;;5.40;3.83;;;;;;;26.23;49.15;97057.72;5054204;28;20139;-69
2022/08/04 06:37:46;;;;;;;5.05;3.45;;;;;;;25.35;48.81;96923.78;5057157;28;20561;-63
2022/08/04 06:40:16;;;;;;;3.88;3.33;;;;;;;26.29;47.71;97049.34;5048679;28;20049;-60
2022/08/04 06:43:06;;;;;;;4.00;3.47;;;;;;;26.02;47.73;96999.03;5058143;28;20041;-63
2022/08/04 06:45:36;;;;;;;5.32;3.83;;;;;;;25.97;47.53;96942.09;5045417;28;20045;-65
2022/08/04 06:48:05;;;;;;;4.20;3.80;;;;;;;27.05;46.31;97055.56;5052381;28;20063;-62
2022/08/04 06:50:35;;;;;;;5.05;3.40;;;;;;;27.22;45.96;97048.22;5044467;28;20559;-67
2022/08/04 06:53:25;;;;;;;3.97;3.65;;;;;;;27.45;45.78;97044.69;5060592;28;20503;-62
2022/08/04 06:55:55;;;;;;;7.22;4.20;;;;;;;27.57;46.09;97051.41;5061678;28;20360;-71
2022/08/04 06:58:23;;;;;;;4.50;4.10;;;;;;;27.59;45.40;97046.03;5054963;28;20056;-64
2022/08/04 07:00:51;;;;;;;5.57;4.60;;;;;;;27.38;45.13;97005.19;5043100;28;20539;-58
2022/08/04 07:03:20;;;;;;;5.63;3.80;;;;;;;27.69;44.37;97002.81;5051857;28;20060;-60
2022/08/04 07:05:49;;;;;;;4.28;3.88;;;;;;;28.17;43.55;97042.66;5056999;28;20492;-70
2022/08/04 07:08:16;;;;;;;3.83;3.53;;;;;;;28.06;44.04;97020.41;5062700;28;20049;-61
2022/08/04 07:10:44;;;;;;;4.68;4.00;;;;;;;28.31;43.13;97019.91;5060379;28;20769;-65
2022/08/04 07:13:11;;;;;;;3.85;3.55;;;;;;;28.05;43.33;97030.25;5061696;28;20044;-60
2022/08/04 07:15:42;;;;;;;4.20;3.80;;;;;;;28.31;43.88;97042.72;5062359;28;20049;-66
2022/08/04 07:18:09;;;;;;;3.95;3.65;;;;;;;28.09;42.77;96991.75;5062279;28;20055;-59
2022/08/04 07:20:40;;;;;;;3.95;3.63;;;;;;;27.59;42.02;96927.25;5062178;28;20474;-59
2022/08/04 07:23:10;;;;;;;3.63;3.42;;;;;;;28.44;41.91;97009.00;5062640;28;20530;-65
2022/08/04 07:25:36;;;;;;;3.80;3.33;;;;;;;28.69;39.98;97033.34;5048000;28;20057;-63
2022/08/04 07:28:26;;;;;;;3.78;3.40;;;;;;;28.66;41.23;97034.34;5058458;28;20044;-63
2022/08/04 07:30:55;;;;;;;3.70;3.50;;;;;;;28.33;40.67;96936.78;5058249;28;20151;-67
2022/08/04 07:33:23;;;;;;;3.70;3.40;;;;;;;28.56;40.61;96950.97;5061612;28;20049;-61
2022/08/04 07:35:55;;;;;;;3.30;3.10;;;;;;;29.23;40.20;97024.19;5049276;28;20056;-67
2022/08/04 07:38:38;;;;;;;4.47;3.92;;;;;;;29.29;40.03;97019.38;5055945;28;20059;-66
2022/08/04 07:41:23;;;;;;;4.28;3.88;;;;;;;29.20;40.20;97016.59;5060291;28;20080;-66
2022/08/04 07:44:07;;;;;;;5.05;4.53;;;;;;;28.80;41.50;96987.91;5056796;28;20083;-63
2022/08/04 07:46:37;;;;;;;5.53;4.03;;;;;;;28.29;41.81;96941.88;5059494;28;20104;-62
2022/08/04 07:49:05;;;;;;;4.70;4.30;;;;;;;27.33;41.02;96783.91;5057860;28;20128;-63
2022/08/04 07:51:34;;;;;;;5.05;4.65;;;;;;;28.88;40.74;96994.78;5063133;28;20056;-63
2022/08/04 07:54:03;;;;;;;4.53;3.78;;;;;;;29.16;40.31;96988.28;5063548;28;20086;-61
2022/08/04 07:56:32;;;;;;;5.20;4.68;;;;;;;29.66;40.49;97014.75;5061559;28;20455;-66
2022/08/04 07:58:59;;;;;;;4.75;4.30;;;;;;;29.97;40.28;97011.28;5059818;28;20056;-63
2022/08/04 08:01:27;;;;;;;4.00;3.58;;;;;;;28.13;38.46;96718.88;5050355;28;20051;-66
2022/08/04 08:03:55;;;;;;;4.93;4.53;;;;;;;29.98;38.62;97007.91;5062556;28;20052;-62
2022/08/04 08:06:24;;;;;;;5.55;3.53;;;;;;;29.59;37.46;96964.50;5062480;28;20055;-62
2022/08/04 08:09:05;;;;;;;4.20;3.80;;;;;;;29.70;38.24;96975.34;5058396;28;20151;-67
2022/08/04 08:11:41;;;;;;;3.63;3.33;;;;;;;30.04;37.28;97005.91;5042319;28;20067;-69
2022/08/04 08:14:29;;;;;;;3.88;3.58;;;;;;;28.06;36.32;96718.47;5053824;28;20052;-62
2022/08/04 08:16:58;;;;;;;3.70;3.45;;;;;;;29.62;36.38;96951.34;5055508;28;20099;-65
2022/08/04 08:19:25;;;;;;;3.88;3.58;;;;;;;29.98;36.17;97002.19;5042116;28;20067;-67
2022/08/04 08:21:52;;;;;;;4.03;3.72;;;;;;;29.99;35.46;96974.44;5050263;28;20075;-63
2022/08/04 08:24:30;;;;;;;4.50;3.90;;;;;;;30.44;35.58;97000.19;5043668;28;20056;-64
2022/08/04 08:26:58;;;;;;;4.55;4.18;;;;;;;30.79;35.32;97000.81;5053461;28;20076;-61
2022/08/04 08:29:28;;;;;;;4.90;4.05;;;;;;;30.94;34.60;97004.34;5056829;28;20053;-61
2022/08/04 08:31:55;;;;;;;4.53;4.13;;;;;;;30.58;33.76;96976.41;5060620;28;20633;-63
2022/08/04 08:34:28;;;;;;;4.68;4.28;;;;;;;30.45;34.00;96980.94;5067454;28;20104;-73
2022/08/04 08:37:11;;;;;;;5.20;3.90;;;;;;;31.36;33.60;97006.53;5057501;28;20059;-65
2022/08/04 08:39:43;;;;;;;5.60;3.88;;;;;;;31.55;33.82;97001.19;5054564;28;20211;-68
2022/08/04 08:42:57;;;;;;;4.82;4.43;;;;;;;31.70;33.24;97001.78;5051648;28;20133;-65
2022/08/04 08:45:59;;;;;;;5.10;3.65;;;;;;;31.96;33.54;96999.63;4985375;28;20046;-62
2022/08/04 08:48:50;;;;;;;4.60;4.30;;;;;;;30.81;33.38;97006.03;4986020;28;20136;-65
2022/08/04 08:51:44;;;;;;;7.40;5.18;;;;;;;30.79;34.12;96997.94;5043532;28;20079;-61
2022/08/04 08:54:28;;;;;;;5.03;4.55;;;;;;;31.11;33.09;96989.38;5058410;28;20587;-59
2022/08/04 08:57:25;;;;;;;4.50;4.10;;;;;;;31.50;32.86;96993.34;5054368;28;20063;-66
2022/08/04 09:00:26;;;;;;;4.78;4.38;;;;;;;32.01;32.29;96987.41;5059947;28;20055;-61
2022/08/04 09:03:13;;;;;;;4.40;4.05;;;;;;;31.61;32.63;96959.03;5046054;28;20106;-59
2022/08/04 09:05:48;;;;;;;4.35;4.05;;;;;;;32.19;32.62;96975.47;5047123;28;20064;-67
2022/08/04 09:08:57;;;;;;;5.85;5.30;;;;;;;32.20;32.40;96989.28;5054936;28;20052;-69
2022/08/04 09:11:31;;;;;;;9.95;7.45;;;;;;;32.05;32.11;96930.59;5059246;28;20052;-60
2022/08/04 09:14:13;;;;;;;18.33;8.88;;;;;;;32.24;32.02;96989.06;5063997;28;20143;-64
2022/08/04 09:16:44;;;;;;;4.30;4.00;;;;;;;32.39;32.51;96971.66;5047236;28;20045;-65
2022/08/04 09:19:56;;;;;;;4.97;4.57;;;;;;;31.68;31.92;96938.50;5046791;28;20303;-61
2022/08/04 09:22:44;;;;;;;4.30;4.00;;;;;;;32.19;32.26;96964.00;5045143;28;20048;-65
2022/08/04 09:25:20;;;;;;;4.47;4.10;;;;;;;32.68;31.67;96974.06;5063505;28;20056;-66
2022/08/04 09:27:54;;;;;;;4.45;4.15;;;;;;;32.80;32.19;96972.78;5063229;28;20063;-67
2022/08/04 09:30:30;;;;;;;4.32;4.03;;;;;;;32.88;31.97;96974.63;5055531;28;20052;-61
2022/08/04 09:33:22;;;;;;;4.38;4.07;;;;;;;32.90;31.54;96960.53;5062734;28;20058;-66
2022/08/04 09:36:15;;;;;;;4.53;4.18;;;;;;;32.66;32.07;96974.56;5046660;28;20056;-63
2022/08/04 09:39:10;;;;;;;5.57;4.10;;;;;;;32.81;31.56;96975.13;5056992;28;20152;-68
2022/08/04 09:41:47;;;;;;;3.92;3.63;;;;;;;32.10;31.37;96978.56;5062260;28;20074;-67
2022/08/04 09:44:21;;;;;;;3.97;3.67;;;;;;;32.41;31.99;96981.31;5046588;28;20053;-64
2022/08/04 09:47:21;;;;;;;5.20;4.75;;;;;;;32.59;31.39;96980.84;5061998;28;20052;-63
2022/08/04 09:50:03;;;;;;;3.72;3.53;;;;;;;32.72;31.69;96971.72;5054962;28;20405;-64
2022/08/04 09:52:45;;;;;;;6.07;4.00;;;;;;;32.57;31.56;96966.22;5051997;28;20585;-69
2022/08/04 09:55:44;;;;;;;4.70;3.97;;;;;;;32.26;32.66;96970.00;5048492;28;20052;-59
2022/08/04 09:58:36;;;;;;;3.50;3.30;;;;;;;32.26;31.54;96929.09;5053673;28;20060;-66
2022/08/04 10:01:13;;;;;;;4.25;3.95;;;;;;;32.51;31.04;96928.13;5065070;28;20076;-61
2022/08/04 10:03:59;;;;;;;7.90;4.43;;;;;;;32.61;30.75;96943.81;5057926;28;20056;-67
2022/08/04 10:06:58;;;;;;;4.05;3.85;;;;;;;33.22;30.89;96958.97;5045981;28;20068;-66
2022/08/04 10:10:03;;;;;;;3.92;3.72;;;;;;;32.79;29.97;96971.19;5055094;28;20057;-58
2022/08/04 10:12:54;;;;;;;4.15;3.78;;;;;;;32.64;30.40;96959.97;5057841;28;20102;-66
2022/08/04 10:15:35;;;;;;;4.60;4.20;;;;;;;32.75;29.55;96954.25;5051529;28;20171;-60
2022/08/04 10:18:13;;;;;;;4.57;4.28;;;;;;;32.47;29.91;96967.00;5057346;28;20048;-58
2022/08/04 10:21:04;;;;;;;4.20;3.90;;;;;;;32.33;31.12;96969.53;5057505;28;20048;-65
2022/08/04 10:24:10;;;;;;;4.05;3.75;;;;;;;32.24;31.31;96966.91;5050671;28;20053;-67
2022/08/04 10:26:55;;;;;;;3.70;3.40;;;;;;;32.41;30.13;96969.84;5062882;28;20060;-63
2022/08/04 10:29:29;;;;;;;4.60;4.20;;;;;;;31.95;31.02;96943.59;5054591;28;20592;-68
2022/08/04 10:32:08;;;;;;;6.03;3.77;;;;;;;32.34;30.87;96958.84;5063832;28;20061;-59
2022/08/04 10:34:43;;;;;;;5.30;4.55;;;;;;;32.08;30.14;96850.09;5064590;28;20282;-69
2022/08/04 10:37:23;;;;;;;4.00;3.70;;;;;;;32.89;29.74;96944.63;5048214;28;20051;-67
2022/08/04 10:46:04;;;;;;;7.90;5.93;;;;;;;31.74;30.27;96962.25;5044627;28;20806;-58
2022/08/04 10:48:43;;;;;;;4.93;4.50;;;;;;;31.80;31.24;96974.50;5048243;28;20056;-60
2022/08/04 10:51:35;;;;;;;6.15;4.10;;;;;;;31.63;30.44;96965.03;5044375;28;20306;-60
2022/08/04 10:54:28;;;;;;;3.97;3.67;;;;;;;31.43;30.46;96957.38;5039221;28;20111;-65
2022/08/04 10:57:03;;;;;;;4.40;4.10;;;;;;;31.64;29.79;96963.75;5039507;28;20616;-65
2022/08/04 10:59:44;;;;;;;4.35;4.00;;;;;;;31.61;29.99;96918.94;5040034;28;20594;-58
2022/08/04 11:02:26;;;;;;;4.88;4.47;;;;;;;31.98;30.42;96966.28;5040139;28;20053;-58
2022/08/04 11:05:03;;;;;;;7.47;4.47;;;;;;;31.60;30.43;96911.66;5041634;28;20503;-65
2022/08/04 11:07:33;;;;;;;3.95;3.55;;;;;;;31.63;28.83;96919.97;5024131;28;20072;-65
2022/08/04 11:10:01;;;;;;;4.80;4.30;;;;;;;31.72;29.33;96936.19;5021379;28;20057;-61
2022/08/04 11:12:29;;;;;;;4.20;3.80;;;;;;;32.06;29.75;96953.03;5021586;28;20076;-66
2022/08/04 11:15:03;;;;;;;3.80;3.50;;;;;;;31.95;30.46;96957.91;5021923;28;20049;-59
2022/08/04 11:17:34;;;;;;;4.10;3.80;;;;;;;32.22;29.65;96957.25;5019902;28;20061;-58
2022/08/04 11:20:13;;;;;;;5.60;3.95;;;;;;;32.54;29.02;96949.25;5021760;28;20419;-59
2022/08/04 11:23:09;;;;;;;3.70;3.50;;;;;;;32.26;29.18;96849.59;5021066;28;20062;-58
2022/08/04 11:25:38;;;;;;;3.70;3.50;;;;;;;32.70;29.31;96943.56;5020136;28;20064;-62
2022/08/04 11:28:14;;;;;;;4.07;3.70;;;;;;;32.66;29.38;96905.72;5072533;28;20434;-66
2022/08/04 11:30:51;;;;;;;3.92;3.50;;;;;;;32.84;28.19;96945.38;5061491;28;20419;-59
2022/08/04 11:34:14;;;;;;;5.65;3.25;;;;;;;32.38;28.35;96907.78;5059503;28;20509;-58
2022/08/04 11:37:08;;;;;;;4.13;3.83;;;;;;;32.44;29.02;96940.09;5054898;28;20462;-66
2022/08/04 11:39:59;;;;;;;5.78;3.78;;;;;;;32.19;29.69;96923.88;5060694;28;20053;-61
2022/08/04 11:42:30;;;;;;;5.22;3.60;;;;;;;32.06;28.97;96880.56;5064206;28;20044;-64
2022/08/04 11:45:05;;;;;;;5.07;4.57;;;;;;;32.35;29.29;96903.03;5080436;28;20147;-62
2022/08/04 11:47:46;;;;;;;4.60;3.90;;;;;;;33.32;28.22;96914.28;5081007;28;20470;-68
2022/08/04 11:50:32;;;;;;;4.97;4.43;;;;;;;33.63;27.71;96875.84;5063246;28;20052;-69
2022/08/04 11:53:01;;;;;;;4.15;3.80;;;;;;;33.61;28.93;96921.56;5063024;28;20049;-65
2022/08/04 11:55:30;;;;;;;4.70;4.30;;;;;;;31.01;30.14;96704.69;5058842;28;20041;-58
2022/08/04 11:57:57;;;;;;;4.18;3.75;;;;;;;32.39;29.84;96923.66;5063387;28;20049;-73
2022/08/04 12:00:26;;;;;;;4.60;4.30;;;;;;;31.44;31.21;96892.28;5065370;28;20052;-60
2022/08/04 12:03:18;;;;;;;4.25;3.80;;;;;;;31.06;32.03;96907.13;5064170;28;20479;-67
2022/08/04 12:06:21;;;;;;;4.80;4.15;;;;;;;31.64;31.86;96915.03;5045396;28;20506;-69
2022/08/04 12:09:19;;;;;;;6.68;5.22;;;;;;;32.37;30.35;96894.75;5066452;28;20056;-72
2022/08/04 12:12:19;;;;;;;4.32;3.95;;;;;;;32.43;29.52;96915.59;5054352;28;20053;-65
2022/08/04 12:14:56;;;;;;;4.68;4.35;;;;;;;32.86;30.20;96902.59;5055719;28;20079;-64
2022/08/04 12:17:45;;;;;;;3.70;3.50;;;;;;;32.09;30.55;96911.09;5066557;28;20051;-61
2022/08/04 12:20:23;;;;;;;3.97;3.67;;;;;;;32.45;30.13;96906.47;5056493;28;20055;-61
2022/08/04 12:23:14;;;;;;;6.90;4.00;;;;;;;31.97;31.29;96904.53;5046904;28;20053;-67
2022/08/04 12:25:46;;;;;;;4.07;3.78;;;;;;;32.38;30.81;96884.03;5045079;28;20057;-66
2022/08/04 12:28:24;;;;;;;4.50;3.70;;;;;;;32.14;30.43;96822.22;5044691;28;20053;-61
2022/08/04 12:31:20;;;;;;;3.70;3.50;;;;;;;31.91;30.35;96811.22;5046544;28;20057;-63
2022/08/04 12:33:55;;;;;;;4.13;3.75;;;;;;;31.91;30.51;96839.88;5043340;28;20057;-63
2022/08/04 12:36:42;;;;;;;5.13;3.65;;;;;;;32.55;30.61;96899.97;5056364;28;20067;-64
2022/08/04 12:39:16;;;;;;;5.22;3.90;;;;;;;32.42;30.55;96896.84;5066196;28;20139;-61